Time;durP1;ratioP1;P1;durP2;ratioP2;P2;SDS_P1;SDS_P2;PMS_P1;PMS_P2;Temp;Humidity;BMP_temperature;BMP_pressure;BME280_temperature;BME280_humidity;BME280_pressure;Samples;Min_cycle;Max_cycle;Signal;HPM_P1;HPM_P2
2021/12/16 00:02:32;;;;;;;;;;;;;;;;;;5153305;27;610;-62
2021/12/16 00:05:31;;;;;;;;;;;;;;;;;;5153862;27;874;-61
2021/12/16 00:08:01;;;;;;;;;;;;;;;;;;5153373;27;1052;-61
2021/12/16 00:10:34;;;;;;;;;;;;;;;;;;5150508;27;2620;-61
2021/12/16 00:32:18;;;;;;;;;;;;;;;;;;5153290;27;816;-62
2021/12/16 00:34:44;;;;;;;;;;;;;;;;;;5134580;27;1709;-61
2021/12/16 00:37:09;;;;;;;;;;;;;;;;;;5134456;27;868;-62
2021/12/16 00:39:36;;;;;;;;;;;;;;;;;;5152712;27;839;-61
2021/12/16 00:42:08;;;;;;;;;;;;;;;;;;5153379;27;1895;-62
2021/12/16 00:49:40;;;;;;;;;;;;;;;;;;5159438;27;807;-62
2021/12/16 00:55:09;;;;;;;;;;;;;;;;;;5120341;27;1117;-61
2021/12/16 00:57:35;;;;;;;;;;;;;;;;;;5158843;27;876;-61
2021/12/16 01:00:04;;;;;;;;;;;;;;;;;;5140479;27;1929;-61
2021/12/16 01:02:57;;;;;;;;;;;;;;;;;;5158974;27;934;-61
2021/12/16 01:51:22;;;;;;;;;;;;;;;;;;5121515;27;820;-61
2021/12/16 01:54:52;;;;;;;;;;;;;;;;;;5137612;27;848;-61
2021/12/16 01:56:56;;;;;;;;;;;;;;;;;;5121758;27;1303;-61
2021/12/16 01:59:26;;;;;;;;;;;;;;;;;;5137721;27;2960;-61
2021/12/16 02:01:59;;;;;;;;;;;;;;;;;;5143849;27;2349;-61
2021/12/16 02:04:30;;;;;;;;;;;;;;;;;;5139325;27;2046;-61
2021/12/16 02:07:10;;;;;;;;;;;;;;;;;;5141968;27;1048;-61
2021/12/16 02:09:40;;;;;;;;;;;;;;;;;;5134390;27;847;-61
2021/12/16 02:12:21;;;;;;;;;;;;;;;;;;5134531;27;927;-61
2021/12/16 02:36:30;;;;;;;;;;;;;;;;;;5134265;27;883;-61
2021/12/16 02:39:00;;;;;;;;;;;;;;;;;;5134462;27;827;-61
2021/12/16 02:41:26;;;;;;;;;;;;;;;;;;5133787;27;1970;-61
2021/12/16 02:44:12;;;;;;;;;;;;;;;;;;5133995;27;864;-61
2021/12/16 02:49:22;;;;;;;;;;;;;;;;;;5134567;27;662;-61
2021/12/16 02:51:47;;;;;;;;;;;;;;;;;;5115109;27;1167;-61
2021/12/16 02:54:13;;;;;;;;;;;;;;;;;;5134720;27;797;-61
2021/12/16 02:56:39;;;;;;;;;;;;;;;;;;5133471;27;1045;-61
2021/12/16 02:59:04;;;;;;;;;;;;;;;;;;5133748;27;895;-62
2021/12/16 03:01:35;;;;;;;;;;;;;;;;;;5133493;27;1976;-61
2021/12/16 03:04:02;;;;;;;;;;;;;;;;;;5133908;27;816;-62
2021/12/16 03:06:30;;;;;;;;;;;;;;;;;;5132337;27;833;-61
2021/12/16 03:08:56;;;;;;;;;;;;;;;;;;5133963;27;813;-61
2021/12/16 03:22:07;;;;;;;;;;;;;;;;;;5133536;27;1902;-61
2021/12/16 03:25:23;;;;;;;;;;;;;;;;;;5133424;27;940;-61
2021/12/16 03:35:53;;;;;;;;;;;;;;;;;;5133511;27;1031;-62
2021/12/16 03:38:19;;;;;;;;;;;;;;;;;;5133786;27;1099;-62
2021/12/16 03:40:44;;;;;;;;;;;;;;;;;;5133744;27;1968;-62
2021/12/16 03:43:14;;;;;;;;;;;;;;;;;;5133331;27;911;-62
2021/12/16 03:48:38;;;;;;;;;;;;;;;;;;5142521;27;2886;-62
2021/12/16 03:51:08;;;;;;;;;;;;;;;;;;5153578;27;883;-62
2021/12/16 03:53:34;;;;;;;;;;;;;;;;;;5153204;27;808;-60
2021/12/16 03:55:59;;;;;;;;;;;;;;;;;;5152805;27;1109;-62
2021/12/16 03:58:24;;;;;;;;;;;;;;;;;;5153082;27;978;-60
2021/12/16 04:00:52;;;;;;;;;;;;;;;;;;5153273;27;2341;-63
2021/12/16 04:03:17;;;;;;;;;;;;;;;;;;5153230;27;883;-61
2021/12/16 04:05:44;;;;;;;;;;;;;;;;;;5152940;27;879;-60
2021/12/16 04:08:09;;;;;;;;;;;;;;;;;;5153050;27;856;-60
2021/12/16 04:10:39;;;;;;;;;;;;;;;;;;5133978;27;1606;-60
2021/12/16 04:13:05;;;;;;;;;;;;;;;;;;5153476;27;943;-60
2021/12/16 04:15:31;;;;;;;;;;;;;;;;;;5153032;27;957;-62
2021/12/16 04:17:57;;;;;;;;;;;;;;;;;;5134267;27;863;-62
2021/12/16 04:20:23;;;;;;;;;;;;;;;;;;5134002;27;1918;-62
2021/12/16 04:22:48;;;;;;;;;;;;;;;;;;5152684;27;913;-62
2021/12/16 04:25:16;;;;;;;;;;;;;;;;;;5153324;27;841;-62
2021/12/16 04:27:42;;;;;;;;;;;;;;;;;;5152923;27;891;-62
2021/12/16 04:30:09;;;;;;;;;;;;;;;;;;5153106;27;820;-62
2021/12/16 04:32:35;;;;;;;;;;;;;;;;;;5152640;27;772;-62
2021/12/16 04:35:00;;;;;;;;;;;;;;;;;;5152951;27;951;-62
2021/12/16 04:37:25;;;;;;;;;;;;;;;;;;5153036;27;874;-62
2021/12/16 04:39:51;;;;;;;;;;;;;;;;;;5152492;27;1909;-62
2021/12/16 04:42:19;;;;;;;;;;;;;;;;;;5152896;27;1098;-62
2021/12/16 04:44:45;;;;;;;;;;;;;;;;;;5134484;27;875;-62
2021/12/16 04:47:11;;;;;;;;;;;;;;;;;;5153308;27;1010;-62
2021/12/16 04:49:36;;;;;;;;;;;;;;;;;;5152575;27;844;-62
2021/12/16 04:52:05;;;;;;;;;;;;;;;;;;5152645;27;926;-63
2021/12/16 04:54:30;;;;;;;;;;;;;;;;;;5153067;27;764;-62
2021/12/16 04:56:56;;;;;;;;;;;;;;;;;;5134112;27;833;-62
2021/12/16 04:59:22;;;;;;;;;;;;;;;;;;5153098;27;860;-62
2021/12/16 05:01:50;;;;;;;;;;;;;;;;;;5153041;27;1914;-62
2021/12/16 05:04:15;;;;;;;;;;;;;;;;;;5135094;27;1436;-62
2021/12/16 05:06:41;;;;;;;;;;;;;;;;;;5153375;27;888;-62
2021/12/16 05:09:08;;;;;;;;;;;;;;;;;;5134834;27;840;-62
2021/12/16 05:11:35;;;;;;;;;;;;;;;;;;5152987;27;851;-62
2021/12/16 05:14:01;;;;;;;;;;;;;;;;;;5152843;27;864;-62
2021/12/16 05:16:26;;;;;;;;;;;;;;;;;;5152835;27;919;-62
2021/12/16 05:18:54;;;;;;;;;;;;;;;;;;5152902;27;896;-62
2021/12/16 05:26:48;;;;;;;;;;;;;;;;;;5152364;27;682;-62
2021/12/16 05:29:13;;;;;;;;;;;;;;;;;;5117085;27;1237;-62
2021/12/16 05:31:39;;;;;;;;;;;;;;;;;;5156122;27;812;-62
2021/12/16 05:34:05;;;;;;;;;;;;;;;;;;5156082;27;915;-62
2021/12/16 05:36:31;;;;;;;;;;;;;;;;;;5154050;27;2667;-62
2021/12/16 05:38:57;;;;;;;;;;;;;;;;;;5155722;27;1045;-62
2021/12/16 05:41:22;;;;;;;;;;;;;;;;;;5155821;27;1948;-62
2021/12/16 05:43:48;;;;;;;;;;;;;;;;;;5137465;27;918;-62
2021/12/16 05:46:14;;;;;;;;;;;;;;;;;;5156144;27;1077;-62
2021/12/16 05:48:42;;;;;;;;;;;;;;;;;;5156159;27;916;-62
2021/12/16 05:51:13;;;;;;;;;;;;;;;;;;5155860;27;983;-61
2021/12/16 05:53:39;;;;;;;;;;;;;;;;;;5155929;27;887;-61
2021/12/16 05:56:05;;;;;;;;;;;;;;;;;;5155670;27;978;-61
2021/12/16 05:58:30;;;;;;;;;;;;;;;;;;5155960;27;863;-61
2021/12/16 06:00:58;;;;;;;;;;;;;;;;;;5155583;27;1967;-61
2021/12/16 06:03:23;;;;;;;;;;;;;;;;;;5137187;27;764;-62
2021/12/16 06:05:50;;;;;;;;;;;;;;;;;;5155459;27;923;-62
2021/12/16 06:08:16;;;;;;;;;;;;;;;;;;5156066;27;828;-62
2021/12/16 06:13:09;;;;;;;;;;;;;;;;;;5155336;27;875;-62
2021/12/16 06:15:57;;;;;;;;;;;;;;;;;;5155741;27;812;-62
2021/12/16 06:29:00;;;;;;;;;;;;;;;;;;5154944;27;793;-62
2021/12/16 06:31:26;;;;;;;;;;;;;;;;;;5155176;27;1151;-62
2021/12/16 06:33:51;;;;;;;;;;;;;;;;;;5155174;27;1132;-62
2021/12/16 06:36:16;;;;;;;;;;;;;;;;;;5155723;27;1011;-62
2021/12/16 06:38:42;;;;;;;;;;;;;;;;;;5154855;27;856;-61
2021/12/16 06:41:07;;;;;;;;;;;;;;;;;;5154600;27;1909;-62
2021/12/16 06:43:33;;;;;;;;;;;;;;;;;;5154938;27;887;-61
2021/12/16 06:46:01;;;;;;;;;;;;;;;;;;5154708;27;837;-62
2021/12/16 06:48:31;;;;;;;;;;;;;;;;;;5155098;27;1224;-61
2021/12/16 06:51:01;;;;;;;;;;;;;;;;;;5154294;27;899;-62
2021/12/16 06:53:32;;;;;;;;;;;;;;;;;;5136973;27;899;-62
2021/12/16 06:56:06;;;;;;;;;;;;;;;;;;5154942;27;832;-62
2021/12/16 06:58:37;;;;;;;;;;;;;;;;;;5154940;27;943;-62
2021/12/16 07:01:37;;;;;;;;;;;;;;;;;;5154104;27;1917;-62
2021/12/16 07:03:51;;;;;;;;;;;;;;;;;;5153475;27;952;-61
2021/12/16 07:06:21;;;;;;;;;;;;;;;;;;5136580;27;782;-62
2021/12/16 07:08:48;;;;;;;;;;;;;;;;;;5154760;27;835;-61
2021/12/16 07:11:14;;;;;;;;;;;;;;;;;;5154472;27;895;-62
2021/12/16 07:13:42;;;;;;;;;;;;;;;;;;5153667;27;852;-62
2021/12/16 07:16:08;;;;;;;;;;;;;;;;;;5153947;27;831;-62
2021/12/16 07:18:34;;;;;;;;;;;;;;;;;;5153793;27;772;-62
2021/12/16 07:20:59;;;;;;;;;;;;;;;;;;5134672;27;1909;-62
2021/12/16 07:23:24;;;;;;;;;;;;;;;;;;5134124;27;2365;-62
2021/12/16 07:25:50;;;;;;;;;;;;;;;;;;5133220;27;2596;-62
2021/12/16 07:28:15;;;;;;;;;;;;;;;;;;5132745;27;837;-62
2021/12/16 07:30:42;;;;;;;;;;;;;;;;;;5131328;27;2557;-62
2021/12/16 07:33:08;;;;;;;;;;;;;;;;;;5129079;27;836;-62
2021/12/16 07:35:34;;;;;;;;;;;;;;;;;;5132432;27;872;-61
2021/12/16 07:38:00;;;;;;;;;;;;;;;;;;5132310;27;856;-62
2021/12/16 07:40:26;;;;;;;;;;;;;;;;;;5131771;27;1898;-61
2021/12/16 07:45:34;;;;;;;;;;;;;;;;;;5115788;27;717;-62
2021/12/16 07:48:00;;;;;;;;;;;;;;;;;;5113454;27;769;-61
2021/12/16 07:50:25;;;;;;;;;;;;;;;;;;5131878;27;971;-61
2021/12/16 07:52:52;;;;;;;;;;;;;;;;;;5130920;27;927;-61
2021/12/16 07:55:18;;;;;;;;;;;;;;;;;;5132230;27;808;-62
2021/12/16 07:57:43;;;;;;;;;;;;;;;;;;5131881;27;903;-62
2021/12/16 08:00:12;;;;;;;;;;;;;;;;;;5132098;27;1905;-61
2021/12/16 08:02:38;;;;;;;;;;;;;;;;;;5131821;27;1937;-62
2021/12/16 08:05:04;;;;;;;;;;;;;;;;;;5132102;27;809;-62
2021/12/16 08:07:30;;;;;;;;;;;;;;;;;;5131752;27;1031;-61
2021/12/16 08:09:55;;;;;;;;;;;;;;;;;;5131778;27;974;-61
2021/12/16 08:12:20;;;;;;;;;;;;;;;;;;5113831;27;943;-62
2021/12/16 08:14:46;;;;;;;;;;;;;;;;;;5132272;27;828;-62
2021/12/16 08:17:12;;;;;;;;;;;;;;;;;;5131908;27;879;-62
2021/12/16 08:19:37;;;;;;;;;;;;;;;;;;5131976;27;1038;-62
2021/12/16 08:22:03;;;;;;;;;;;;;;;;;;5113470;27;1962;-62
2021/12/16 08:24:29;;;;;;;;;;;;;;;;;;5131851;27;1097;-62
2021/12/16 08:26:54;;;;;;;;;;;;;;;;;;5113866;27;1182;-62
2021/12/16 08:29:20;;;;;;;;;;;;;;;;;;5132434;27;891;-61
2021/12/16 08:31:45;;;;;;;;;;;;;;;;;;5132568;27;898;-62
2021/12/16 08:34:11;;;;;;;;;;;;;;;;;;5131760;27;1061;-62
2021/12/16 08:36:37;;;;;;;;;;;;;;;;;;5132488;27;808;-61
2021/12/16 08:39:04;;;;;;;;;;;;;;;;;;5132322;27;982;-62
2021/12/16 08:41:32;;;;;;;;;;;;;;;;;;5132052;27;1905;-62
2021/12/16 08:43:58;;;;;;;;;;;;;;;;;;5132537;28;915;-62
2021/12/16 08:46:24;;;;;;;;;;;;;;;;;;5132550;28;911;-62
2021/12/16 08:48:50;;;;;;;;;;;;;;;;;;5113830;28;1007;-62
2021/12/16 08:51:18;;;;;;;;;;;;;;;;;;5132028;28;983;-62
2021/12/16 08:53:43;;;;;;;;;;;;;;;;;;5114132;28;1486;-61
2021/12/16 08:56:09;;;;;;;;;;;;;;;;;;5114112;28;833;-62
2021/12/16 08:58:37;;;;;;;;;;;;;;;;;;5131989;28;832;-62
2021/12/16 09:01:10;;;;;;;;;;;;;;;;;;5132056;28;1909;-62
2021/12/16 09:03:35;;;;;;;;;;;;;;;;;;5133614;27;805;-62
2021/12/16 09:06:01;;;;;;;;;;;;;;;;;;5135930;27;1001;-62
2021/12/16 09:08:27;;;;;;;;;;;;;;;;;;5136759;27;777;-62
2021/12/16 09:10:52;;;;;;;;;;;;;;;;;;5135886;27;883;-62
2021/12/16 09:13:18;;;;;;;;;;;;;;;;;;5136100;27;816;-62
2021/12/16 09:15:46;;;;;;;;;;;;;;;;;;5135759;27;931;-62
2021/12/16 09:18:12;;;;;;;;;;;;;;;;;;5135615;27;838;-62
2021/12/16 09:20:37;;;;;;;;;;;;;;;;;;5135295;27;1906;-62
2021/12/16 09:23:03;;;;;;;;;;;;;;;;;;5135300;27;912;-62
2021/12/16 09:25:28;;;;;;;;;;;;;;;;;;5135532;27;923;-62
2021/12/16 09:27:54;;;;;;;;;;;;;;;;;;5135459;27;863;-62
2021/12/16 09:30:21;;;;;;;;;;;;;;;;;;5135073;27;1010;-61
2021/12/16 09:32:46;;;;;;;;;;;;;;;;;;5135706;27;818;-62
2021/12/16 09:35:12;;;;;;;;;;;;;;;;;;5135204;27;881;-62
2021/12/16 09:37:38;;;;;;;;;;;;;;;;;;5134964;27;902;-62
2021/12/16 09:40:06;;;;;;;;;;;;;;;;;;5135276;27;1955;-61
2021/12/16 09:42:31;;;;;;;;;;;;;;;;;;5134476;27;1202;-61
2021/12/16 09:44:56;;;;;;;;;;;;;;;;;;5135245;27;836;-62
2021/12/16 09:47:23;;;;;;;;;;;;;;;;;;5134637;27;1018;-61
2021/12/16 09:49:49;;;;;;;;;;;;;;;;;;5134911;27;826;-62
2021/12/16 09:52:14;;;;;;;;;;;;;;;;;;5136658;27;1038;-62
2021/12/16 09:54:41;;;;;;;;;;;;;;;;;;5136762;27;960;-62
2021/12/16 09:57:06;;;;;;;;;;;;;;;;;;5137210;27;1244;-62
2021/12/16 09:59:32;;;;;;;;;;;;;;;;;;5136832;27;836;-62
2021/12/16 10:01:59;;;;;;;;;;;;;;;;;;5137195;27;2007;-62
2021/12/16 10:04:31;;;;;;;;;;;;;;;;;;5136944;27;930;-62
2021/12/16 10:06:57;;;;;;;;;;;;;;;;;;5136645;27;840;-62
2021/12/16 10:09:23;;;;;;;;;;;;;;;;;;5137846;27;824;-62
2021/12/16 10:11:50;;;;;;;;;;;;;;;;;;5137152;27;852;-63
2021/12/16 10:14:32;;;;;;;;;;;;;;;;;;5138303;27;864;-63
2021/12/16 10:19:43;;;;;;;;;;;;;;;;;;5137266;27;654;-62
2021/12/16 10:22:19;;;;;;;;;;;;;;;;;;5136893;27;1901;-62
2021/12/16 10:24:45;;;;;;;;;;;;;;;;;;5135958;27;860;-62
2021/12/16 10:27:15;;;;;;;;;;;;;;;;;;5134782;27;950;-62
2021/12/16 10:29:43;;;;;;;;;;;;;;;;;;5134559;27;962;-62
2021/12/16 10:32:28;;;;;;;;;;;;;;;;;;5134661;27;796;-62
2021/12/16 10:34:58;;;;;;;;;;;;;;;;;;5134000;27;1408;-60
2021/12/16 10:37:28;;;;;;;;;;;;;;;;;;5134349;27;899;-60
2021/12/16 10:39:54;;;;;;;;;;;;;;;;;;5134459;27;860;-60
2021/12/16 10:42:19;;;;;;;;;;;;;;;;;;5115540;27;1965;-61
2021/12/16 10:44:44;;;;;;;;;;;;;;;;;;5134004;27;841;-61
2021/12/16 10:47:12;;;;;;;;;;;;;;;;;;5134190;27;891;-62
2021/12/16 10:49:40;;;;;;;;;;;;;;;;;;5133918;27;928;-61
2021/12/16 10:52:08;;;;;;;;;;;;;;;;;;5134453;27;983;-61
2021/12/16 10:54:43;;;;;;;;;;;;;;;;;;5133967;27;832;-62
2021/12/16 10:57:11;;;;;;;;;;;;;;;;;;5133852;27;844;-61
2021/12/16 10:59:40;;;;;;;;;;;;;;;;;;5133339;27;855;-61
2021/12/16 11:02:07;;;;;;;;;;;;;;;;;;5133230;27;1973;-61
2021/12/16 11:04:38;;;;;;;;;;;;;;;;;;5114092;27;1181;-61
2021/12/16 11:07:17;;;;;;;;;;;;;;;;;;5133075;27;753;-61
2021/12/16 11:09:47;;;;;;;;;;;;;;;;;;5132561;27;898;-62
2021/12/16 11:12:13;;;;;;;;;;;;;;;;;;5132569;27;915;-61
2021/12/16 11:14:40;;;;;;;;;;;;;;;;;;5132250;27;1013;-61
2021/12/16 11:17:07;;;;;;;;;;;;;;;;;;5132840;27;859;-61
2021/12/16 11:19:41;;;;;;;;;;;;;;;;;;5132367;27;978;-61
2021/12/16 11:22:07;;;;;;;;;;;;;;;;;;5132980;27;1901;-61
2021/12/16 11:24:32;;;;;;;;;;;;;;;;;;5132483;27;895;-61
2021/12/16 11:26:58;;;;;;;;;;;;;;;;;;5131340;27;942;-61
2021/12/16 11:29:29;;;;;;;;;;;;;;;;;;5114339;27;1357;-61
2021/12/16 11:31:56;;;;;;;;;;;;;;;;;;5132300;27;884;-61
2021/12/16 11:34:22;;;;;;;;;;;;;;;;;;5131951;27;858;-61
2021/12/16 11:36:53;;;;;;;;;;;;;;;;;;5132531;27;880;-61
2021/12/16 11:39:20;;;;;;;;;;;;;;;;;;5132512;27;996;-61
2021/12/16 11:42:06;;;;;;;;;;;;;;;;;;5131911;27;1964;-61
2021/12/16 11:44:38;;;;;;;;;;;;;;;;;;5130954;27;1119;-61
2021/12/16 11:47:17;;;;;;;;;;;;;;;;;;5132562;27;1343;-61
2021/12/16 11:49:53;;;;;;;;;;;;;;;;;;5114427;27;824;-61
2021/12/16 11:52:23;;;;;;;;;;;;;;;;;;5114190;27;816;-61
2021/12/16 11:54:50;;;;;;;;;;;;;;;;;;5130314;27;864;-61
2021/12/16 11:57:15;;;;;;;;;;;;;;;;;;5113816;27;1042;-61
2021/12/16 11:59:45;;;;;;;;;;;;;;;;;;5132050;27;867;-62
2021/12/16 12:02:20;;;;;;;;;;;;;;;;;;5132531;27;1909;-62
2021/12/16 12:04:45;;;;;;;;;;;;;;;;;;5132496;27;891;-61
2021/12/16 12:07:12;;;;;;;;;;;;;;;;;;5132464;27;1038;-61
2021/12/16 12:09:45;;;;;;;;;;;;;;;;;;5113383;27;924;-62
2021/12/16 12:12:11;;;;;;;;;;;;;;;;;;5132424;27;781;-62
2021/12/16 12:14:37;;;;;;;;;;;;;;;;;;5131763;27;845;-62
2021/12/16 12:17:16;;;;;;;;;;;;;;;;;;5132514;27;879;-62
2021/12/16 12:19:43;;;;;;;;;;;;;;;;;;5132041;27;871;-62
2021/12/16 12:22:09;;;;;;;;;;;;;;;;;;5131792;27;1959;-62
2021/12/16 12:24:40;;;;;;;;;;;;;;;;;;5131757;27;876;-62
2021/12/16 12:27:15;;;;;;;;;;;;;;;;;;5132012;27;841;-61
2021/12/16 12:29:42;;;;;;;;;;;;;;;;;;5131665;27;908;-62
2021/12/16 12:32:09;;;;;;;;;;;;;;;;;;5132162;27;860;-62
2021/12/16 12:34:36;;;;;;;;;;;;;;;;;;5131394;27;1005;-62
2021/12/16 12:37:03;;;;;;;;;;;;;;;;;;5132140;27;796;-62
2021/12/16 12:39:32;;;;;;;;;;;;;;;;;;5130895;27;966;-62
2021/12/16 12:41:58;;;;;;;;;;;;;;;;;;5130939;27;1917;-62
2021/12/16 12:44:23;;;;;;;;;;;;;;;;;;5130901;28;923;-62
2021/12/16 12:46:49;;;;;;;;;;;;;;;;;;5112577;28;904;-62
2021/12/16 12:49:15;;;;;;;;;;;;;;;;;;5131430;28;918;-62
2021/12/16 12:51:43;;;;;;;;;;;;;;;;;;5130868;28;885;-62
2021/12/16 12:54:19;;;;;;;;;;;;;;;;;;5131299;28;789;-62
2021/12/16 12:56:44;;;;;;;;;;;;;;;;;;5131064;28;893;-62
2021/12/16 12:59:11;;;;;;;;;;;;;;;;;;5131373;28;887;-62
2021/12/16 13:01:37;;;;;;;;;;;;;;;;;;5131098;28;1922;-61
2021/12/16 13:04:11;;;;;;;;;;;;;;;;;;5131580;28;847;-61
2021/12/16 13:06:47;;;;;;;;;;;;;;;;;;5130920;28;1900;-61
2021/12/16 13:09:21;;;;;;;;;;;;;;;;;;5131258;28;1068;-62
2021/12/16 13:11:47;;;;;;;;;;;;;;;;;;5140646;27;1241;-61
2021/12/16 13:14:24;;;;;;;;;;;;;;;;;;5132372;27;1536;-61
2021/12/16 13:27:42;;;;;;;;;;;;;;;;;;5131512;28;757;-61
2021/12/16 13:32:48;;;;;;;;;;;;;;;;;;5131308;28;801;-62
2021/12/16 13:37:46;;;;;;;;;;;;;;;;;;5131602;28;828;-62
2021/12/16 13:40:14;;;;;;;;;;;;;;;;;;5131598;28;939;-62
2021/12/16 13:42:54;;;;;;;;;;;;;;;;;;5130997;28;1770;-62
2021/12/16 13:45:25;;;;;;;;;;;;;;;;;;5112634;28;1310;-62
2021/12/16 14:02:06;;;;;;;;;;;;;;;;;;5135316;27;1897;-62
2021/12/16 14:07:50;;;;;;;;;;;;;;;;;;5135911;27;869;-62
2021/12/16 14:10:21;;;;;;;;;;;;;;;;;;5134781;27;1434;-62
2021/12/16 14:27:03;;;;;;;;;;;;;;;;;;5155171;27;607;-61
2021/12/16 14:33:34;;;;;;;;;;;;;;;;;;5155726;27;681;-60
2021/12/16 14:35:28;;;;;;;;;;;;;;;;;;5154356;27;884;-61
2021/12/16 14:38:12;;;;;;;;;;;;;;;;;;5154837;27;901;-61
2021/12/16 14:41:04;;;;;;;;;;;;;;;;;;5154328;27;1905;-61
2021/12/16 14:46:11;;;;;;;;;;;;;;;;;;5139239;27;793;-61
2021/12/16 14:48:36;;;;;;;;;;;;;;;;;;5154266;27;816;-61
2021/12/16 14:51:06;;;;;;;;;;;;;;;;;;5154871;27;776;-61
2021/12/16 14:53:31;;;;;;;;;;;;;;;;;;5135651;27;1317;-61
2021/12/16 14:55:59;;;;;;;;;;;;;;;;;;5153167;27;836;-61
2021/12/16 14:58:26;;;;;;;;;;;;;;;;;;5154247;27;847;-61
2021/12/16 15:00:55;;;;;;;;;;;;;;;;;;5118233;27;1910;-61
2021/12/16 15:03:38;;;;;;;;;;;;;;;;;;5154354;27;902;-61
2021/12/16 15:06:05;;;;;;;;;;;;;;;;;;5154367;27;867;-61
2021/12/16 15:08:42;;;;;;;;;;;;;;;;;;5153819;27;1000;-61
2021/12/16 15:11:10;;;;;;;;;;;;;;;;;;5154265;27;839;-61
2021/12/16 15:13:43;;;;;;;;;;;;;;;;;;5153542;27;839;-61
2021/12/16 15:17:01;;;;;;;;;;;;;;;;;;5154001;27;928;-61
2021/12/16 15:36:27;;;;;;;;;;;;;;;;;;5153688;27;1030;-61
2021/12/16 15:43:55;;;;;;;;;;;;;;;;;;5153281;27;824;-61
2021/12/16 15:46:21;;;;;;;;;;;;;;;;;;5153494;27;907;-61
2021/12/16 15:48:48;;;;;;;;;;;;;;;;;;5134817;27;935;-61
2021/12/16 15:51:14;;;;;;;;;;;;;;;;;;5134896;27;1964;-61
2021/12/16 15:53:41;;;;;;;;;;;;;;;;;;5153135;27;879;-61
2021/12/16 15:56:12;;;;;;;;;;;;;;;;;;5153258;27;745;-60
2021/12/16 15:58:40;;;;;;;;;;;;;;;;;;5152350;27;899;-61
2021/12/16 16:01:07;;;;;;;;;;;;;;;;;;5152912;27;1905;-60
2021/12/16 16:03:33;;;;;;;;;;;;;;;;;;5152485;27;836;-60
2021/12/16 16:06:00;;;;;;;;;;;;;;;;;;5152912;27;887;-60
2021/12/16 16:08:29;;;;;;;;;;;;;;;;;;5152839;27;824;-60
2021/12/16 16:11:05;;;;;;;;;;;;;;;;;;5151999;27;959;-60
2021/12/16 16:13:36;;;;;;;;;;;;;;;;;;5151788;27;813;-60
2021/12/16 16:16:03;;;;;;;;;;;;;;;;;;5152563;27;1566;-60
2021/12/16 16:21:00;;;;;;;;;;;;;;;;;;5152000;27;1929;-59
2021/12/16 16:23:27;;;;;;;;;;;;;;;;;;5152708;27;939;-59
2021/12/16 16:25:52;;;;;;;;;;;;;;;;;;5152025;27;836;-60
2021/12/16 16:28:19;;;;;;;;;;;;;;;;;;5152648;27;866;-60
2021/12/16 16:30:44;;;;;;;;;;;;;;;;;;5152646;27;910;-60
2021/12/16 16:33:14;;;;;;;;;;;;;;;;;;5152760;27;835;-60
2021/12/16 16:36:01;;;;;;;;;;;;;;;;;;5152278;27;915;-60
2021/12/16 16:38:32;;;;;;;;;;;;;;;;;;5152537;27;875;-60
2021/12/16 16:40:58;;;;;;;;;;;;;;;;;;5129620;27;2348;-60
2021/12/16 16:43:25;;;;;;;;;;;;;;;;;;5131281;27;1645;-60
2021/12/16 16:45:52;;;;;;;;;;;;;;;;;;5131051;27;839;-60
2021/12/16 16:48:31;;;;;;;;;;;;;;;;;;5132132;27;975;-60
2021/12/16 16:51:07;;;;;;;;;;;;;;;;;;5129856;28;824;-60
2021/12/16 16:53:42;;;;;;;;;;;;;;;;;;5131519;27;906;-60
2021/12/16 16:56:08;;;;;;;;;;;;;;;;;;5131686;27;1166;-60
2021/12/16 16:58:33;;;;;;;;;;;;;;;;;;5131502;27;1147;-60
2021/12/16 17:00:58;;;;;;;;;;;;;;;;;;5129325;28;1921;-62
2021/12/16 17:03:24;;;;;;;;;;;;;;;;;;5132106;27;836;-62
2021/12/16 17:05:50;;;;;;;;;;;;;;;;;;5131697;27;970;-62
2021/12/16 17:08:17;;;;;;;;;;;;;;;;;;5132328;27;1059;-62
2021/12/16 17:10:55;;;;;;;;;;;;;;;;;;5132560;27;768;-62
2021/12/16 17:13:25;;;;;;;;;;;;;;;;;;5130698;27;857;-62
2021/12/16 17:18:24;;;;;;;;;;;;;;;;;;5130974;27;641;-62
2021/12/16 17:20:50;;;;;;;;;;;;;;;;;;5131435;27;1941;-62
2021/12/16 17:23:16;;;;;;;;;;;;;;;;;;5131900;27;843;-62
2021/12/16 17:25:41;;;;;;;;;;;;;;;;;;5132159;27;908;-62
2021/12/16 17:28:07;;;;;;;;;;;;;;;;;;5135706;27;891;-62
2021/12/16 17:30:34;;;;;;;;;;;;;;;;;;5135916;27;1001;-62
2021/12/16 17:32:59;;;;;;;;;;;;;;;;;;5135117;27;892;-62
2021/12/16 17:35:26;;;;;;;;;;;;;;;;;;5134681;27;926;-62
2021/12/16 17:37:58;;;;;;;;;;;;;;;;;;5134635;27;828;-62
2021/12/16 17:40:25;;;;;;;;;;;;;;;;;;5135064;27;1901;-62
2021/12/16 17:42:56;;;;;;;;;;;;;;;;;;5155534;27;910;-62
2021/12/16 17:45:24;;;;;;;;;;;;;;;;;;5155740;27;871;-62
2021/12/16 17:47:50;;;;;;;;;;;;;;;;;;5155268;27;890;-62
2021/12/16 17:50:18;;;;;;;;;;;;;;;;;;5155609;27;903;-62
2021/12/16 17:52:48;;;;;;;;;;;;;;;;;;5155030;27;993;-62
2021/12/16 17:55:15;;;;;;;;;;;;;;;;;;5155472;27;991;-62
2021/12/16 17:57:43;;;;;;;;;;;;;;;;;;5155087;27;1002;-61
2021/12/16 18:00:19;;;;;;;;;;;;;;;;;;5155098;27;1217;-62
2021/12/16 18:02:46;;;;;;;;;;;;;;;;;;5134981;27;1957;-62
2021/12/16 18:05:11;;;;;;;;;;;;;;;;;;5153874;27;1486;-62
2021/12/16 18:07:41;;;;;;;;;;;;;;;;;;5154906;27;875;-62
2021/12/16 18:10:06;;;;;;;;;;;;;;;;;;5155231;27;879;-61
2021/12/16 18:12:32;;;;;;;;;;;;;;;;;;5155513;27;995;-62
2021/12/16 18:15:05;;;;;;;;;;;;;;;;;;5136465;27;1494;-61
2021/12/16 18:17:33;;;;;;;;;;;;;;;;;;5155159;27;867;-62
2021/12/16 18:20:02;;;;;;;;;;;;;;;;;;5154981;27;867;-61
2021/12/16 18:22:32;;;;;;;;;;;;;;;;;;5156069;27;1968;-60
2021/12/16 18:24:59;;;;;;;;;;;;;;;;;;5155678;27;874;-62
2021/12/16 18:27:29;;;;;;;;;;;;;;;;;;5155431;27;875;-61
2021/12/16 18:29:58;;;;;;;;;;;;;;;;;;5155281;27;874;-62
2021/12/16 18:32:35;;;;;;;;;;;;;;;;;;5155596;27;1907;-61
2021/12/16 18:35:01;;;;;;;;;;;;;;;;;;5155145;27;1012;-61
2021/12/16 18:37:29;;;;;;;;;;;;;;;;;;5155523;27;807;-62
2021/12/16 18:39:54;;;;;;;;;;;;;;;;;;5155765;27;940;-62
2021/12/16 18:42:22;;;;;;;;;;;;;;;;;;5155737;27;1971;-62
2021/12/16 18:44:50;;;;;;;;;;;;;;;;;;5154541;27;741;-62
2021/12/16 18:47:47;;;;;;;;;;;;;;;;;;5155026;27;890;-62
2021/12/16 18:55:43;;;;;;;;;;;;;;;;;;5115655;27;1137;-62
2021/12/16 18:58:08;;;;;;;;;;;;;;;;;;5154478;27;1667;-62
2021/12/16 19:00:35;;;;;;;;;;;;;;;;;;5154693;27;1906;-62
2021/12/16 19:03:00;;;;;;;;;;;;;;;;;;5154429;27;835;-61
2021/12/16 19:05:26;;;;;;;;;;;;;;;;;;5154850;27;859;-62
2021/12/16 19:07:51;;;;;;;;;;;;;;;;;;5154086;27;895;-62
2021/12/16 19:10:19;;;;;;;;;;;;;;;;;;5154842;27;836;-62
2021/12/16 19:12:46;;;;;;;;;;;;;;;;;;5154592;27;827;-62
2021/12/16 19:15:19;;;;;;;;;;;;;;;;;;5135643;27;907;-63
2021/12/16 19:17:48;;;;;;;;;;;;;;;;;;5154499;27;998;-61
2021/12/16 19:20:15;;;;;;;;;;;;;;;;;;5154912;27;992;-61
2021/12/16 19:22:40;;;;;;;;;;;;;;;;;;5154210;27;1889;-61
2021/12/16 19:25:07;;;;;;;;;;;;;;;;;;5153910;27;848;-61
2021/12/16 19:27:32;;;;;;;;;;;;;;;;;;5154061;27;828;-62
2021/12/16 19:29:59;;;;;;;;;;;;;;;;;;5153552;27;823;-61
2021/12/16 19:32:26;;;;;;;;;;;;;;;;;;5154317;27;927;-62
2021/12/16 19:34:53;;;;;;;;;;;;;;;;;;5153981;27;1029;-62
2021/12/16 19:37:19;;;;;;;;;;;;;;;;;;5153782;27;899;-62
2021/12/16 19:39:45;;;;;;;;;;;;;;;;;;5153808;27;809;-62
2021/12/16 19:42:10;;;;;;;;;;;;;;;;;;5153227;27;1906;-63
2021/12/16 19:44:37;;;;;;;;;;;;;;;;;;5154092;27;966;-62
2021/12/16 19:47:03;;;;;;;;;;;;;;;;;;5135409;27;1222;-61
2021/12/16 19:49:28;;;;;;;;;;;;;;;;;;5152855;27;1042;-61
2021/12/16 19:51:55;;;;;;;;;;;;;;;;;;5153467;27;801;-62
2021/12/16 19:54:21;;;;;;;;;;;;;;;;;;5153773;27;879;-61
2021/12/16 19:56:48;;;;;;;;;;;;;;;;;;5135262;27;856;-62
2021/12/16 19:59:14;;;;;;;;;;;;;;;;;;5134867;27;833;-62
2021/12/16 20:01:40;;;;;;;;;;;;;;;;;;5154058;27;1898;-61
2021/12/16 20:04:06;;;;;;;;;;;;;;;;;;5154390;27;789;-62
2021/12/16 20:06:33;;;;;;;;;;;;;;;;;;5154702;27;844;-61
2021/12/16 20:08:59;;;;;;;;;;;;;;;;;;5153612;27;852;-61
2021/12/16 20:11:29;;;;;;;;;;;;;;;;;;5153582;27;1003;-62
2021/12/16 20:13:55;;;;;;;;;;;;;;;;;;5153234;27;902;-61
2021/12/16 20:16:23;;;;;;;;;;;;;;;;;;5153580;27;1146;-61
2021/12/16 20:18:50;;;;;;;;;;;;;;;;;;5153611;27;756;-61
2021/12/16 20:21:21;;;;;;;;;;;;;;;;;;5153140;27;1967;-61
2021/12/16 20:23:47;;;;;;;;;;;;;;;;;;5153165;27;855;-62
2021/12/16 20:26:15;;;;;;;;;;;;;;;;;;5153082;27;820;-61
2021/12/16 20:28:44;;;;;;;;;;;;;;;;;;5152920;27;1002;-61
2021/12/16 20:31:12;;;;;;;;;;;;;;;;;;5152628;27;1793;-61
2021/12/16 20:33:46;;;;;;;;;;;;;;;;;;5152872;27;1001;-61
2021/12/16 20:36:13;;;;;;;;;;;;;;;;;;5152132;27;986;-62
2021/12/16 20:38:47;;;;;;;;;;;;;;;;;;5133767;27;887;-62
2021/12/16 20:41:14;;;;;;;;;;;;;;;;;;5151997;27;1989;-62
2021/12/16 20:43:42;;;;;;;;;;;;;;;;;;5152846;27;875;-62
2021/12/16 20:46:10;;;;;;;;;;;;;;;;;;5152504;27;891;-61
2021/12/16 20:48:42;;;;;;;;;;;;;;;;;;5152925;27;864;-61
2021/12/16 20:51:09;;;;;;;;;;;;;;;;;;5152399;27;1146;-61
2021/12/16 20:53:35;;;;;;;;;;;;;;;;;;5152585;27;822;-61
2021/12/16 20:56:00;;;;;;;;;;;;;;;;;;5137164;27;1362;-61
2021/12/16 20:58:29;;;;;;;;;;;;;;;;;;5136899;27;1277;-61
2021/12/16 21:00:57;;;;;;;;;;;;;;;;;;5154981;27;1905;-62
2021/12/16 21:03:22;;;;;;;;;;;;;;;;;;5157039;27;923;-62
2021/12/16 21:05:52;;;;;;;;;;;;;;;;;;5156696;27;930;-62
2021/12/16 21:08:18;;;;;;;;;;;;;;;;;;5156467;27;928;-62
2021/12/16 21:10:44;;;;;;;;;;;;;;;;;;5156008;27;807;-62
2021/12/16 21:13:10;;;;;;;;;;;;;;;;;;5137106;27;990;-62
2021/12/16 21:15:35;;;;;;;;;;;;;;;;;;5156122;27;804;-62